createdAt,value
2023-07-10T00:01:03.311Z,20.52
2023-07-10T00:03:30.284Z,20.43
2023-07-10T00:06:00.805Z,20.60
2023-07-10T00:08:28.114Z,21.20
2023-07-10T00:10:55.133Z,21.24
2023-07-10T00:13:23.287Z,20.65
2023-07-10T00:15:52.057Z,21.01
2023-07-10T00:18:22.034Z,21.02
2023-07-10T00:20:54.636Z,20.99
2023-07-10T00:23:21.600Z,20.83
2023-07-10T00:25:48.710Z,20.93
2023-07-10T00:28:20.576Z,21.11
2023-07-10T00:30:49.995Z,21.03
2023-07-10T00:33:20.635Z,21.13
2023-07-10T00:35:48.856Z,20.91
2023-07-10T00:38:30.585Z,20.94
2023-07-10T00:41:06.846Z,20.97
2023-07-10T00:43:39.043Z,20.76
2023-07-10T00:46:18.552Z,20.81
2023-07-10T00:48:52.124Z,21.01
2023-07-10T00:51:27.706Z,21.05
2023-07-10T00:53:56.705Z,20.76
2023-07-10T00:56:24.642Z,20.69
2023-07-10T00:58:51.731Z,20.79
2023-07-10T01:01:21.114Z,20.69
2023-07-10T01:03:51.145Z,20.57
2023-07-10T01:06:20.439Z,20.25
2023-07-10T01:09:04.136Z,20.34
2023-07-10T01:11:35.908Z,20.30
2023-07-10T01:14:05.862Z,20.46
2023-07-10T01:16:33.950Z,20.02
2023-07-10T01:19:00.916Z,19.94
2023-07-10T01:21:34.201Z,19.87
2023-07-10T01:24:05.881Z,19.71
2023-07-10T01:26:36.313Z,19.69
2023-07-10T01:29:03.582Z,19.44
2023-07-10T01:31:31.789Z,19.49
2023-07-10T01:34:03.090Z,19.53
2023-07-10T01:36:37.147Z,20.03
2023-07-10T01:39:27.871Z,20.20
2023-07-10T01:41:54.521Z,20.31
2023-07-10T01:44:27.367Z,20.44
2023-07-10T01:46:56.897Z,19.76
2023-07-10T01:49:58.704Z,20.09
2023-07-10T01:52:26.397Z,20.08
2023-07-10T01:54:56.760Z,19.89
2023-07-10T01:57:25.390Z,19.58
2023-07-10T01:59:53.772Z,19.76
2023-07-10T02:02:21.770Z,19.81
2023-07-10T02:04:49.240Z,20.03
2023-07-10T02:07:16.179Z,19.78
2023-07-10T02:09:42.770Z,19.89
2023-07-10T02:12:10.509Z,19.72
2023-07-10T02:14:37.049Z,19.60
2023-07-10T02:17:04.190Z,19.40
2023-07-10T02:19:30.966Z,19.87
2023-07-10T02:21:59.023Z,19.98
2023-07-10T02:24:26.446Z,19.39
2023-07-10T02:26:53.853Z,19.85
2023-07-10T02:29:21.487Z,19.69
2023-07-10T02:31:51.119Z,20.10
2023-07-10T02:34:17.883Z,20.08
2023-07-10T02:36:45.805Z,19.64
2023-07-10T02:39:13.099Z,19.93
2023-07-10T02:41:40.453Z,19.73
2023-07-10T02:44:07.501Z,19.89
2023-07-10T02:46:34.210Z,19.34
2023-07-10T02:49:01.398Z,19.61
2023-07-10T02:51:30.436Z,19.93
2023-07-10T02:53:57.043Z,19.87
2023-07-10T02:56:23.712Z,20.03
2023-07-10T02:58:53.623Z,19.77
2023-07-10T03:01:27.724Z,19.33
2023-07-10T03:03:55.438Z,19.69
2023-07-10T03:06:24.728Z,19.56
2023-07-10T03:08:51.706Z,19.48
2023-07-10T03:11:18.485Z,19.24
2023-07-10T03:13:45.526Z,19.17
2023-07-10T03:16:14.726Z,19.47
2023-07-10T03:18:41.760Z,19.45
2023-07-10T03:21:10.862Z,19.53
2023-07-10T03:23:38.538Z,19.65
2023-07-10T03:26:06.425Z,19.54
2023-07-10T03:28:38.354Z,19.23
2023-07-10T03:31:08.252Z,18.95
2023-07-10T03:33:36.123Z,19.10
2023-07-10T03:36:10.848Z,18.75
2023-07-10T03:38:37.739Z,19.18
2023-07-10T03:41:04.437Z,19.10
2023-07-10T03:43:31.121Z,19.25
2023-07-10T03:45:58.058Z,19.29
2023-07-10T03:48:26.255Z,19.20
2023-07-10T03:50:52.787Z,18.96
2023-07-10T03:53:20.060Z,19.09
2023-07-10T03:55:54.193Z,19.15
2023-07-10T03:58:29.840Z,19.01
2023-07-10T04:01:01.422Z,19.34
2023-07-10T04:03:34.677Z,18.68
2023-07-10T04:06:06.991Z,19.01
2023-07-10T04:08:39.409Z,19.12
2023-07-10T04:11:20.768Z,19.02
2023-07-10T04:13:49.594Z,18.99
2023-07-10T04:16:25.584Z,18.93
2023-07-10T04:18:54.016Z,19.02
2023-07-10T04:21:23.624Z,19.02
2023-07-10T04:23:50.776Z,19.01
2023-07-10T04:26:21.635Z,18.78
2023-07-10T04:28:51.209Z,19.08
2023-07-10T04:31:19.146Z,18.89
2023-07-10T04:33:46.821Z,19.31
2023-07-10T04:36:14.251Z,19.30
2023-07-10T04:38:40.940Z,19.48
2023-07-10T04:41:11.577Z,19.60
2023-07-10T04:43:38.720Z,19.12
2023-07-10T04:46:11.307Z,19.95
2023-07-10T04:48:38.109Z,20.33
2023-07-10T04:51:09.142Z,20.31
2023-07-10T04:53:35.960Z,20.78
2023-07-10T04:56:08.195Z,21.00
2023-07-10T04:58:51.151Z,21.11
2023-07-10T05:01:19.756Z,20.55
2023-07-10T05:03:47.793Z,20.82
2023-07-10T05:06:15.227Z,21.32
2023-07-10T05:08:42.096Z,21.38
2023-07-10T05:11:09.191Z,21.48
2023-07-10T05:13:35.946Z,21.29
2023-07-10T05:16:03.437Z,20.85
2023-07-10T05:18:31.299Z,21.32
2023-07-10T05:21:00.973Z,21.41
2023-07-10T05:23:29.129Z,21.80
2023-07-10T05:26:05.355Z,21.93
2023-07-10T05:28:32.589Z,22.57
2023-07-10T05:31:03.249Z,22.77
2023-07-10T05:33:31.495Z,23.04
2023-07-10T05:36:01.237Z,23.18
2023-07-10T05:38:31.737Z,23.14
2023-07-10T05:41:01.540Z,22.94
2023-07-10T05:43:33.134Z,22.39
2023-07-10T05:46:00.415Z,22.86
2023-07-10T05:48:29.903Z,22.85
2023-07-10T05:50:57.684Z,22.77
2023-07-10T05:53:25.866Z,23.10
2023-07-10T05:55:57.299Z,23.73
2023-07-10T05:58:27.540Z,23.95
2023-07-10T06:00:57.250Z,23.97
2023-07-10T06:03:24.845Z,24.35
2023-07-10T06:06:01.420Z,24.48
2023-07-10T06:08:29.398Z,24.75
2023-07-10T06:10:56.770Z,24.94
2023-07-10T06:13:24.430Z,24.81
2023-07-10T06:15:53.734Z,25.18
2023-07-10T06:18:20.856Z,25.43
2023-07-10T06:21:00.869Z,25.80
2023-07-10T06:23:30.064Z,26.17
2023-07-10T06:25:57.420Z,26.26
2023-07-10T06:28:25.370Z,26.21
2023-07-10T06:31:08.120Z,26.58
2023-07-10T06:33:36.819Z,26.34
2023-07-10T06:36:06.201Z,26.59
2023-07-10T06:38:34.118Z,26.39
2023-07-10T06:41:00.808Z,26.99
2023-07-10T06:43:27.401Z,26.88
2023-07-10T06:45:57.172Z,27.15
2023-07-10T06:48:24.182Z,27.29
2023-07-10T06:50:52.705Z,27.44
2023-07-10T06:56:03.006Z,27.59
2023-07-10T06:58:34.514Z,27.56
2023-07-10T07:01:03.565Z,26.86
2023-07-10T07:03:31.147Z,27.81
2023-07-10T07:05:59.964Z,27.65
2023-07-10T07:08:26.595Z,27.55
2023-07-10T07:10:54.994Z,27.71
2023-07-10T07:13:22.740Z,27.73
2023-07-10T07:15:56.827Z,27.98
2023-07-10T07:18:27.838Z,28.25
2023-07-10T07:20:55.635Z,28.15
2023-07-10T07:23:22.457Z,28.06
2023-07-10T07:25:49.342Z,27.86
2023-07-10T07:28:16.059Z,27.61
2023-07-10T07:30:48.689Z,27.23
2023-07-10T07:33:20.951Z,27.25
2023-07-10T07:35:50.229Z,27.58
2023-07-10T07:38:18.190Z,28.09
2023-07-10T07:40:45.630Z,28.84
2023-07-10T07:43:12.525Z,28.72
2023-07-10T07:45:39.522Z,28.79
2023-07-10T07:48:06.606Z,29.10
2023-07-10T07:50:33.183Z,29.59
2023-07-10T07:53:00.103Z,29.74
2023-07-10T07:55:26.666Z,29.67
2023-07-10T07:57:53.523Z,29.66
2023-07-10T08:00:22.089Z,30.07
2023-07-10T08:02:50.721Z,30.05
2023-07-10T08:05:32.924Z,30.30
2023-07-10T08:08:01.772Z,30.53
2023-07-10T08:10:32.329Z,30.54
2023-07-10T08:12:59.116Z,30.52
2023-07-10T08:15:25.602Z,30.67
2023-07-10T08:17:52.216Z,30.70
2023-07-10T08:20:18.859Z,30.85
2023-07-10T08:22:46.027Z,30.84
2023-07-10T08:25:12.976Z,30.88
2023-07-10T08:27:40.481Z,30.81
2023-07-10T08:30:08.165Z,30.78
2023-07-10T08:32:35.386Z,30.55
2023-07-10T08:35:02.975Z,31.03
2023-07-10T08:37:29.735Z,30.71
2023-07-10T08:39:59.270Z,30.88
2023-07-10T08:42:31.611Z,30.99
2023-07-10T08:45:00.664Z,30.49
2023-07-10T08:47:38.658Z,30.41
2023-07-10T08:50:19.781Z,30.74
2023-07-10T08:53:05.316Z,30.75
2023-07-10T08:55:52.372Z,30.60
2023-07-10T08:58:22.802Z,31.49
2023-07-10T09:00:53.786Z,31.73
2023-07-10T09:03:39.907Z,31.47
2023-07-10T09:06:21.653Z,31.83
2023-07-10T09:08:55.354Z,32.04
2023-07-10T09:11:24.305Z,31.65
2023-07-10T09:13:57.339Z,31.89
2023-07-10T09:16:25.215Z,31.09
2023-07-10T09:19:02.761Z,31.11
2023-07-10T09:21:36.204Z,31.08
2023-07-10T09:24:07.031Z,31.03
2023-07-10T09:26:40.761Z,31.12
2023-07-10T09:29:15.636Z,31.26
2023-07-10T09:32:17.969Z,30.97
2023-07-10T09:34:52.695Z,30.79
2023-07-10T09:37:22.240Z,30.06
2023-07-10T09:39:49.686Z,29.29
2023-07-10T09:42:19.965Z,30.20
2023-07-10T09:44:54.348Z,30.31
2023-07-10T09:47:23.023Z,31.25
2023-07-10T09:49:56.222Z,31.57
2023-07-10T09:52:29.195Z,31.67
2023-07-10T09:55:12.730Z,31.88
2023-07-10T09:58:05.842Z,32.12
2023-07-10T10:00:35.653Z,32.13
2023-07-10T10:03:14.893Z,32.15
2023-07-10T10:05:43.782Z,32.24
2023-07-10T10:08:28.727Z,31.94
2023-07-10T10:11:08.866Z,32.00
2023-07-10T10:13:43.417Z,31.78
2023-07-10T10:16:30.123Z,31.83
2023-07-10T10:19:03.315Z,31.99
2023-07-10T10:21:36.682Z,31.78
2023-07-10T10:24:08.771Z,31.38
2023-07-10T10:26:56.775Z,30.85
2023-07-10T10:29:36.144Z,31.17
2023-07-10T10:32:27.606Z,31.49
2023-07-10T10:35:11.156Z,31.44
2023-07-10T10:38:05.050Z,31.34
2023-07-10T10:40:40.843Z,31.71
2023-07-10T10:43:32.880Z,31.62
2023-07-10T10:46:23.479Z,31.42
2023-07-10T10:49:13.388Z,31.22
2023-07-10T10:52:06.063Z,31.20
2023-07-10T10:54:36.772Z,31.24
2023-07-10T10:57:40.443Z,31.59
2023-07-10T11:00:24.332Z,31.66
2023-07-10T11:02:56.669Z,31.64
2023-07-10T11:05:33.606Z,31.65
2023-07-10T11:08:05.416Z,31.35
2023-07-10T11:10:38.872Z,31.86
2023-07-10T11:13:10.375Z,31.46
2023-07-10T11:15:37.041Z,31.85
2023-07-10T11:18:04.716Z,32.03
2023-07-10T11:20:31.611Z,31.34
2023-07-10T11:23:01.621Z,31.52
2023-07-10T11:25:32.714Z,31.33
2023-07-10T11:28:05.341Z,31.23
2023-07-10T11:30:35.051Z,31.01
2023-07-10T11:33:18.031Z,31.16
2023-07-10T11:36:19.258Z,31.30
2023-07-10T11:39:09.060Z,31.49
2023-07-10T11:41:38.459Z,31.50
2023-07-10T11:44:32.495Z,31.46
2023-07-10T11:47:06.627Z,31.10
2023-07-10T11:49:36.664Z,31.52
2023-07-10T11:52:29.828Z,31.61
2023-07-10T11:55:04.094Z,31.53
2023-07-10T11:57:34.631Z,31.65
2023-07-10T12:00:05.143Z,31.33
2023-07-10T12:02:49.949Z,31.35
2023-07-10T12:05:42.566Z,31.74
2023-07-10T12:08:09.232Z,31.74
2023-07-10T12:10:53.808Z,31.78
2023-07-10T12:13:32.875Z,31.29
2023-07-10T12:16:09.765Z,31.30
2023-07-10T12:18:40.064Z,31.43
2023-07-10T12:21:24.301Z,31.25
2023-07-10T12:23:55.564Z,31.44
2023-07-10T12:26:44.407Z,31.45
2023-07-10T12:29:15.492Z,31.73
2023-07-10T12:31:43.558Z,31.74
2023-07-10T12:34:26.947Z,31.53
2023-07-10T12:36:59.618Z,31.61
2023-07-10T12:39:26.913Z,31.20
2023-07-10T12:41:56.392Z,31.50
2023-07-10T12:44:29.148Z,31.24
2023-07-10T12:47:06.336Z,31.58
2023-07-10T12:49:36.195Z,31.40
2023-07-10T12:52:10.036Z,31.44
2023-07-10T12:54:44.315Z,31.51
2023-07-10T12:57:18.130Z,31.50
2023-07-10T12:59:48.045Z,31.08
2023-07-10T13:02:23.880Z,31.28
2023-07-10T13:05:00.312Z,31.46
2023-07-10T13:07:36.649Z,30.82
2023-07-10T13:10:28.761Z,31.16
2023-07-10T13:13:02.056Z,30.97
2023-07-10T13:15:36.056Z,31.22
2023-07-10T13:18:03.208Z,31.03
2023-07-10T13:20:31.419Z,31.32
2023-07-10T13:23:00.471Z,31.40
2023-07-10T13:25:31.662Z,31.03
2023-07-10T13:27:58.280Z,31.27
2023-07-10T13:30:25.497Z,31.28
2023-07-10T13:32:53.527Z,31.39
2023-07-10T13:35:21.659Z,31.33
2023-07-10T13:37:48.219Z,31.67
2023-07-10T13:40:22.578Z,31.95
2023-07-10T13:42:50.182Z,32.09
2023-07-10T13:45:16.802Z,31.78
2023-07-10T13:47:43.544Z,31.91
2023-07-10T13:50:16.096Z,31.76
2023-07-10T13:52:43.274Z,31.89
2023-07-10T13:55:15.441Z,31.73
2023-07-10T13:57:44.280Z,31.23
2023-07-10T14:00:14.625Z,31.47
2023-07-10T14:02:41.487Z,30.67
2023-07-10T14:05:12.990Z,31.29
2023-07-10T14:07:41.331Z,31.46
2023-07-10T14:10:10.307Z,31.33
2023-07-10T14:12:39.171Z,31.26
2023-07-10T14:15:06.223Z,30.96
2023-07-10T14:17:34.911Z,31.31
2023-07-10T14:20:10.622Z,31.27
2023-07-10T14:22:37.117Z,30.81
2023-07-10T14:25:05.407Z,30.70
2023-07-10T14:27:32.488Z,31.06
2023-07-10T14:30:01.375Z,31.07
2023-07-10T14:32:28.420Z,30.96
2023-07-10T14:34:55.067Z,30.68
2023-07-10T14:37:28.452Z,30.91
2023-07-10T14:39:55.293Z,31.01
2023-07-10T14:42:25.190Z,30.73
2023-07-10T14:44:52.527Z,30.79
2023-07-10T14:47:19.717Z,30.97
2023-07-10T14:49:47.814Z,31.15
2023-07-10T14:52:31.756Z,31.08
2023-07-10T14:55:01.341Z,31.01
2023-07-10T14:57:31.014Z,31.14
2023-07-10T14:59:59.665Z,31.31
2023-07-10T15:02:27.631Z,30.93
2023-07-10T15:04:55.326Z,31.34
2023-07-10T15:07:23.215Z,31.22
2023-07-10T15:09:50.793Z,31.19
2023-07-10T15:12:21.091Z,31.11
2023-07-10T15:14:50.939Z,30.93
2023-07-10T15:17:26.449Z,30.93
2023-07-10T15:19:58.389Z,30.69
2023-07-10T15:22:25.037Z,30.59
2023-07-10T15:24:52.708Z,30.50
2023-07-10T15:27:20.885Z,30.39
2023-07-10T15:29:47.475Z,30.66
2023-07-10T15:32:20.498Z,30.65
2023-07-10T15:34:50.105Z,30.12
2023-07-10T15:37:24.437Z,30.44
2023-07-10T15:39:51.377Z,30.66
2023-07-10T15:42:19.848Z,30.67
2023-07-10T15:44:48.018Z,30.72
2023-07-10T15:47:20.172Z,30.87
2023-07-10T15:49:47.229Z,30.83
2023-07-10T15:52:30.724Z,30.65
2023-07-10T15:55:23.508Z,30.39
2023-07-10T15:57:51.863Z,30.55
2023-07-10T16:00:27.840Z,30.47
2023-07-10T16:02:56.617Z,30.52
2023-07-10T16:05:26.437Z,30.45
2023-07-10T16:07:54.979Z,30.24
2023-07-10T16:10:23.718Z,29.97
2023-07-10T16:12:56.229Z,30.00
2023-07-10T16:15:28.239Z,30.03
2023-07-10T16:17:58.862Z,29.85
2023-07-10T16:20:28.533Z,29.80
2023-07-10T16:23:05.666Z,30.13
2023-07-10T16:25:33.781Z,29.77
2023-07-10T16:28:01.431Z,29.14
2023-07-10T16:30:28.666Z,29.63
2023-07-10T16:32:56.788Z,29.76
2023-07-10T16:35:25.649Z,29.64
2023-07-10T16:37:53.728Z,30.07
2023-07-10T16:40:26.511Z,30.08
2023-07-10T16:42:56.163Z,29.57
2023-07-10T16:45:26.345Z,28.97
2023-07-10T16:47:53.374Z,29.52
2023-07-10T16:50:22.124Z,29.66
2023-07-10T16:52:51.808Z,29.71
2023-07-10T16:55:27.137Z,29.67
2023-07-10T16:57:55.724Z,29.26
2023-07-10T17:00:30.400Z,29.63
2023-07-10T17:03:02.601Z,29.23
2023-07-10T17:05:41.588Z,27.84
2023-07-10T17:08:20.371Z,29.50
2023-07-10T17:10:48.001Z,29.30
2023-07-10T17:13:21.930Z,29.20
2023-07-10T17:16:32.648Z,29.13
2023-07-10T17:18:58.807Z,28.84
2023-07-10T17:21:28.002Z,27.91
2023-07-10T17:23:55.038Z,27.57
2023-07-10T17:26:22.490Z,28.57
2023-07-10T17:28:49.681Z,28.80
2023-07-10T17:31:32.390Z,27.95
2023-07-10T17:34:03.613Z,28.87
2023-07-10T17:36:30.961Z,28.70
2023-07-10T17:39:09.162Z,28.72
2023-07-10T17:41:43.563Z,28.77
2023-07-10T17:44:19.187Z,28.79
2023-07-10T17:46:47.379Z,28.24
2023-07-10T17:49:15.619Z,28.38
2023-07-10T17:51:42.447Z,28.19
2023-07-10T17:54:18.238Z,29.08
2023-07-10T17:56:46.842Z,28.62
2023-07-10T17:59:14.515Z,29.05
2023-07-10T18:01:43.231Z,28.53
2023-07-10T18:04:16.959Z,28.77
2023-07-10T18:06:45.058Z,28.24
2023-07-10T18:09:28.145Z,28.47
2023-07-10T18:11:56.734Z,28.82
2023-07-10T18:14:23.839Z,28.82
2023-07-10T18:16:51.640Z,28.80
2023-07-10T18:19:19.842Z,28.57
2023-07-10T18:21:52.764Z,28.81
2023-07-10T18:24:24.395Z,28.54
2023-07-10T18:26:52.499Z,27.85
2023-07-10T18:29:19.119Z,28.52
2023-07-10T18:31:47.915Z,28.30
2023-07-10T18:34:19.127Z,28.28
2023-07-10T18:36:46.317Z,28.19
2023-07-10T18:39:16.384Z,27.76
2023-07-10T18:41:44.653Z,27.41
2023-07-10T18:44:17.057Z,28.12
2023-07-10T18:46:47.632Z,27.96
2023-07-10T18:49:20.526Z,27.25
2023-07-10T18:51:49.139Z,27.90
2023-07-10T18:54:19.373Z,27.95
2023-07-10T18:56:46.348Z,27.41
2023-07-10T18:59:21.332Z,27.84
2023-07-10T19:01:52.821Z,27.71
2023-07-10T19:04:21.231Z,27.27
2023-07-10T19:06:51.540Z,27.32
2023-07-10T19:09:20.095Z,27.07
2023-07-10T19:11:47.417Z,26.33
2023-07-10T19:14:23.396Z,25.78
2023-07-10T19:16:52.001Z,25.48
2023-07-10T19:19:23.322Z,25.46
2023-07-10T19:21:53.167Z,25.44
2023-07-10T19:24:23.016Z,25.03
2023-07-10T19:26:49.832Z,25.56
2023-07-10T19:29:17.921Z,25.59
2023-07-10T19:32:00.650Z,25.53
2023-07-10T19:34:28.722Z,25.46
2023-07-10T19:36:55.562Z,25.11
2023-07-10T19:39:26.018Z,25.23
2023-07-10T19:41:52.969Z,25.17
2023-07-10T19:44:23.555Z,25.31
2023-07-10T19:46:50.922Z,25.37
2023-07-10T19:49:24.966Z,25.19
2023-07-10T19:51:51.589Z,24.35
2023-07-10T19:54:24.837Z,25.13
2023-07-10T19:56:51.943Z,24.71
2023-07-10T19:59:21.101Z,24.56
2023-07-10T20:01:51.360Z,24.69
2023-07-10T20:04:18.292Z,24.44
2023-07-10T20:06:48.746Z,24.31
2023-07-10T20:09:19.436Z,24.33
2023-07-10T20:11:47.520Z,24.01
2023-07-10T20:14:18.575Z,23.65
2023-07-10T20:17:01.123Z,23.60
2023-07-10T20:19:30.864Z,23.50
2023-07-10T20:21:57.630Z,23.65
2023-07-10T20:24:27.301Z,22.56
2023-07-10T20:26:54.413Z,21.82
2023-07-10T20:29:22.190Z,23.28
2023-07-10T20:31:49.518Z,23.08
2023-07-10T20:34:17.660Z,22.55
2023-07-10T20:36:45.772Z,22.73
2023-07-10T20:39:15.305Z,22.95
2023-07-10T20:41:43.635Z,22.93
2023-07-10T20:44:18.830Z,22.87
2023-07-10T20:46:53.513Z,23.02
2023-07-10T20:49:22.425Z,23.03
2023-07-10T20:51:49.360Z,22.89
2023-07-10T20:54:22.104Z,22.36
2023-07-10T20:56:52.234Z,22.60
2023-07-10T20:59:29.193Z,22.73
2023-07-10T21:01:57.119Z,22.36
2023-07-10T21:04:23.880Z,21.38
2023-07-10T21:07:02.516Z,21.17
2023-07-10T21:09:29.095Z,21.02
2023-07-10T21:11:55.829Z,20.35
2023-07-10T21:14:22.482Z,20.58
2023-07-10T21:16:49.747Z,21.06
2023-07-10T21:19:21.668Z,21.17
2023-07-10T21:21:49.517Z,21.19
2023-07-10T21:24:17.904Z,21.29
2023-07-10T21:26:51.731Z,21.33
2023-07-10T21:29:19.847Z,21.18
2023-07-10T21:31:48.411Z,20.90
2023-07-10T21:34:15.424Z,20.80
2023-07-10T21:36:43.841Z,20.61
2023-07-10T21:39:10.683Z,20.29
2023-07-10T21:41:40.859Z,20.73
2023-07-10T21:44:13.184Z,20.59
2023-07-10T21:46:41.266Z,20.31
2023-07-10T21:49:13.785Z,20.52
2023-07-10T21:51:42.144Z,20.76
2023-07-10T21:54:11.608Z,20.69
2023-07-10T21:56:41.324Z,20.52
2023-07-10T21:59:20.808Z,20.04
2023-07-10T22:01:47.961Z,20.78
2023-07-10T22:04:14.947Z,20.69
2023-07-10T22:06:46.498Z,20.64
2023-07-10T22:09:14.825Z,20.64
2023-07-10T22:11:43.362Z,20.60
2023-07-10T22:14:18.494Z,20.39
2023-07-10T22:16:45.962Z,20.59
2023-07-10T22:19:14.160Z,20.62
2023-07-10T22:21:42.603Z,19.75
2023-07-10T22:24:20.167Z,20.42
2023-07-10T22:26:47.200Z,19.68
2023-07-10T22:29:14.069Z,19.78
2023-07-10T22:31:41.163Z,20.30
2023-07-10T22:34:08.379Z,19.68
2023-07-10T22:36:35.077Z,20.11
2023-07-10T22:39:02.083Z,19.78
2023-07-10T22:41:33.325Z,20.03
2023-07-10T22:44:05.328Z,19.93
2023-07-10T22:46:35.164Z,19.62
2023-07-10T22:49:05.327Z,19.90
2023-07-10T22:51:35.941Z,20.01
2023-07-10T22:54:04.803Z,19.95
2023-07-10T22:56:37.451Z,19.73
2023-07-10T22:59:04.624Z,18.96
2023-07-10T23:01:32.999Z,19.37
2023-07-10T23:04:01.116Z,19.64
2023-07-10T23:06:32.941Z,19.61
2023-07-10T23:09:00.069Z,18.82
2023-07-10T23:11:27.374Z,19.55
2023-07-10T23:13:54.191Z,19.55
2023-07-10T23:16:25.096Z,18.80
2023-07-10T23:18:56.113Z,19.50
2023-07-10T23:21:24.046Z,19.46
2023-07-10T23:23:51.171Z,19.14
2023-07-10T23:26:23.541Z,18.44
2023-07-10T23:28:51.099Z,18.84
2023-07-10T23:31:22.081Z,18.77
2023-07-10T23:33:52.498Z,18.51
2023-07-10T23:36:21.069Z,18.45
2023-07-10T23:38:48.374Z,18.74
2023-07-10T23:41:15.810Z,18.62
2023-07-10T23:43:42.606Z,18.74
2023-07-10T23:46:09.781Z,18.35
2023-07-10T23:48:36.863Z,18.72
2023-07-10T23:51:03.985Z,18.53
2023-07-10T23:53:31.030Z,18.70
2023-07-10T23:55:58.467Z,18.71
2023-07-10T23:58:28.174Z,18.74
